sensor_id;sensor_type;location;lat;lon;timestamp;P1;durP1;ratioP1;P2;durP2;ratioP2
6348;SDS011;3207;42.648;23.406;2022-07-23T00:00:13;8.65;;;7.95;;
6348;SDS011;3207;42.648;23.406;2022-07-23T00:02:40;9.40;;;8.65;;
6348;SDS011;3207;42.648;23.406;2022-07-23T00:05:07;9.40;;;8.43;;
6348;SDS011;3207;42.648;23.406;2022-07-23T00:07:33;8.93;;;8.27;;
6348;SDS011;3207;42.648;23.406;2022-07-23T00:10:00;9.00;;;8.20;;
6348;SDS011;3207;42.648;23.406;2022-07-23T00:12:27;9.52;;;8.80;;
6348;SDS011;3207;42.648;23.406;2022-07-23T00:14:53;9.00;;;8.27;;
6348;SDS011;3207;42.648;23.406;2022-07-23T00:17:21;8.80;;;8.20;;
6348;SDS011;3207;42.648;23.406;2022-07-23T00:19:48;9.50;;;8.73;;
6348;SDS011;3207;42.648;23.406;2022-07-23T00:22:15;8.95;;;8.15;;
6348;SDS011;3207;42.648;23.406;2022-07-23T00:24:41;10.18;;;8.82;;
6348;SDS011;3207;42.648;23.406;2022-07-23T00:27:08;8.30;;;7.80;;
6348;SDS011;3207;42.648;23.406;2022-07-23T00:29:34;9.90;;;8.10;;
6348;SDS011;3207;42.648;23.406;2022-07-23T00:32:01;9.80;;;8.45;;
6348;SDS011;3207;42.648;23.406;2022-07-23T00:34:29;9.45;;;8.27;;
6348;SDS011;3207;42.648;23.406;2022-07-23T00:36:55;9.55;;;8.90;;
6348;SDS011;3207;42.648;23.406;2022-07-23T00:39:22;9.75;;;8.95;;
6348;SDS011;3207;42.648;23.406;2022-07-23T00:41:49;9.63;;;8.77;;
6348;SDS011;3207;42.648;23.406;2022-07-23T00:44:17;14.43;;;9.13;;
6348;SDS011;3207;42.648;23.406;2022-07-23T00:46:48;10.13;;;9.15;;
6348;SDS011;3207;42.648;23.406;2022-07-23T00:49:18;9.40;;;8.70;;
6348;SDS011;3207;42.648;23.406;2022-07-23T00:51:46;10.35;;;9.35;;
6348;SDS011;3207;42.648;23.406;2022-07-23T00:54:14;11.18;;;9.68;;
6348;SDS011;3207;42.648;23.406;2022-07-23T00:56:41;10.75;;;9.85;;
6348;SDS011;3207;42.648;23.406;2022-07-23T00:59:08;9.02;;;8.32;;
6348;SDS011;3207;42.648;23.406;2022-07-23T01:01:35;11.18;;;9.60;;
6348;SDS011;3207;42.648;23.406;2022-07-23T01:04:02;9.27;;;8.43;;
6348;SDS011;3207;42.648;23.406;2022-07-23T01:06:29;10.05;;;8.45;;
6348;SDS011;3207;42.648;23.406;2022-07-23T01:09:01;9.77;;;9.00;;
6348;SDS011;3207;42.648;23.406;2022-07-23T01:11:29;10.77;;;8.50;;
6348;SDS011;3207;42.648;23.406;2022-07-23T01:13:57;10.82;;;8.73;;
6348;SDS011;3207;42.648;23.406;2022-07-23T01:16:24;9.73;;;8.73;;
6348;SDS011;3207;42.648;23.406;2022-07-23T01:18:50;14.50;;;12.85;;
6348;SDS011;3207;42.648;23.406;2022-07-23T01:21:17;10.80;;;9.98;;
6348;SDS011;3207;42.648;23.406;2022-07-23T01:23:46;10.10;;;9.20;;
6348;SDS011;3207;42.648;23.406;2022-07-23T01:26:12;9.68;;;8.65;;
6348;SDS011;3207;42.648;23.406;2022-07-23T01:28:42;9.18;;;8.48;;
6348;SDS011;3207;42.648;23.406;2022-07-23T01:31:08;9.10;;;8.23;;
6348;SDS011;3207;42.648;23.406;2022-07-23T01:33:35;9.38;;;8.57;;
6348;SDS011;3207;42.648;23.406;2022-07-23T01:36:02;9.32;;;8.48;;
6348;SDS011;3207;42.648;23.406;2022-07-23T01:38:28;9.25;;;8.43;;
6348;SDS011;3207;42.648;23.406;2022-07-23T01:40:58;9.07;;;8.27;;
6348;SDS011;3207;42.648;23.406;2022-07-23T01:43:25;12.57;;;8.70;;
6348;SDS011;3207;42.648;23.406;2022-07-23T01:45:51;9.73;;;8.82;;
6348;SDS011;3207;42.648;23.406;2022-07-23T01:48:18;8.55;;;7.85;;
6348;SDS011;3207;42.648;23.406;2022-07-23T01:50:45;11.90;;;8.90;;
6348;SDS011;3207;42.648;23.406;2022-07-23T01:53:12;10.20;;;9.10;;
6348;SDS011;3207;42.648;23.406;2022-07-23T01:55:39;10.98;;;8.07;;
6348;SDS011;3207;42.648;23.406;2022-07-23T01:58:07;10.73;;;9.20;;
6348;SDS011;3207;42.648;23.406;2022-07-23T02:00:34;11.07;;;9.93;;
6348;SDS011;3207;42.648;23.406;2022-07-23T02:03:00;10.68;;;9.45;;
6348;SDS011;3207;42.648;23.406;2022-07-23T02:05:27;10.73;;;9.60;;
6348;SDS011;3207;42.648;23.406;2022-07-23T02:07:55;14.75;;;10.20;;
6348;SDS011;3207;42.648;23.406;2022-07-23T02:10:21;11.80;;;9.82;;
6348;SDS011;3207;42.648;23.406;2022-07-23T02:12:48;11.57;;;10.15;;
6348;SDS011;3207;42.648;23.406;2022-07-23T02:15:16;11.45;;;10.38;;
6348;SDS011;3207;42.648;23.406;2022-07-23T02:17:42;14.80;;;10.43;;
6348;SDS011;3207;42.648;23.406;2022-07-23T02:20:10;16.13;;;10.43;;
6348;SDS011;3207;42.648;23.406;2022-07-23T02:22:37;11.77;;;10.38;;
6348;SDS011;3207;42.648;23.406;2022-07-23T02:25:05;12.18;;;11.20;;
6348;SDS011;3207;42.648;23.406;2022-07-23T02:27:33;11.88;;;9.57;;
6348;SDS011;3207;42.648;23.406;2022-07-23T02:30:00;11.25;;;10.23;;
6348;SDS011;3207;42.648;23.406;2022-07-23T02:32:28;11.40;;;10.27;;
6348;SDS011;3207;42.648;23.406;2022-07-23T02:34:54;10.65;;;9.63;;
6348;SDS011;3207;42.648;23.406;2022-07-23T02:37:21;10.75;;;9.65;;
6348;SDS011;3207;42.648;23.406;2022-07-23T02:39:47;11.05;;;9.95;;
6348;SDS011;3207;42.648;23.406;2022-07-23T02:42:14;10.43;;;9.52;;
6348;SDS011;3207;42.648;23.406;2022-07-23T02:44:41;10.20;;;9.32;;
6348;SDS011;3207;42.648;23.406;2022-07-23T02:47:08;10.80;;;9.80;;
6348;SDS011;3207;42.648;23.406;2022-07-23T02:49:36;10.63;;;9.55;;
6348;SDS011;3207;42.648;23.406;2022-07-23T02:52:02;9.98;;;9.18;;
6348;SDS011;3207;42.648;23.406;2022-07-23T02:54:30;10.75;;;9.23;;
6348;SDS011;3207;42.648;23.406;2022-07-23T02:56:56;9.63;;;8.93;;
6348;SDS011;3207;42.648;23.406;2022-07-23T02:59:23;10.38;;;9.68;;
6348;SDS011;3207;42.648;23.406;2022-07-23T03:01:49;10.93;;;10.02;;
6348;SDS011;3207;42.648;23.406;2022-07-23T03:04:16;10.55;;;9.60;;
6348;SDS011;3207;42.648;23.406;2022-07-23T03:06:44;11.13;;;10.23;;
6348;SDS011;3207;42.648;23.406;2022-07-23T03:09:10;10.82;;;9.70;;
6348;SDS011;3207;42.648;23.406;2022-07-23T03:11:37;10.45;;;9.45;;
6348;SDS011;3207;42.648;23.406;2022-07-23T03:14:03;10.15;;;9.15;;
6348;SDS011;3207;42.648;23.406;2022-07-23T03:16:30;9.95;;;9.15;;
6348;SDS011;3207;42.648;23.406;2022-07-23T03:18:57;11.32;;;10.43;;
6348;SDS011;3207;42.648;23.406;2022-07-23T03:21:24;9.60;;;8.80;;
6348;SDS011;3207;42.648;23.406;2022-07-23T03:23:52;11.35;;;10.20;;
6348;SDS011;3207;42.648;23.406;2022-07-23T03:26:18;9.07;;;8.40;;
6348;SDS011;3207;42.648;23.406;2022-07-23T03:28:45;10.73;;;9.70;;
6348;SDS011;3207;42.648;23.406;2022-07-23T03:31:11;10.95;;;9.27;;
6348;SDS011;3207;42.648;23.406;2022-07-23T03:33:38;11.00;;;9.85;;
6348;SDS011;3207;42.648;23.406;2022-07-23T03:36:05;9.73;;;8.70;;
6348;SDS011;3207;42.648;23.406;2022-07-23T03:38:32;9.50;;;8.82;;
6348;SDS011;3207;42.648;23.406;2022-07-23T03:40:59;9.95;;;8.98;;
6348;SDS011;3207;42.648;23.406;2022-07-23T03:43:26;10.25;;;8.93;;
6348;SDS011;3207;42.648;23.406;2022-07-23T03:45:53;11.80;;;9.30;;
6348;SDS011;3207;42.648;23.406;2022-07-23T03:48:19;17.80;;;9.50;;
6348;SDS011;3207;42.648;23.406;2022-07-23T03:50:46;9.57;;;8.70;;
6348;SDS011;3207;42.648;23.406;2022-07-23T03:53:12;10.77;;;9.77;;
6348;SDS011;3207;42.648;23.406;2022-07-23T03:55:39;9.82;;;9.02;;
6348;SDS011;3207;42.648;23.406;2022-07-23T03:58:07;12.10;;;9.70;;
6348;SDS011;3207;42.648;23.406;2022-07-23T04:00:34;10.75;;;9.55;;
6348;SDS011;3207;42.648;23.406;2022-07-23T04:03:00;9.57;;;8.82;;
6348;SDS011;3207;42.648;23.406;2022-07-23T04:05:27;10.43;;;8.88;;
6348;SDS011;3207;42.648;23.406;2022-07-23T04:07:53;10.77;;;9.82;;
6348;SDS011;3207;42.648;23.406;2022-07-23T04:10:20;11.57;;;9.32;;
6348;SDS011;3207;42.648;23.406;2022-07-23T04:12:47;10.73;;;9.13;;
6348;SDS011;3207;42.648;23.406;2022-07-23T04:15:15;10.60;;;9.40;;
6348;SDS011;3207;42.648;23.406;2022-07-23T04:17:41;10.18;;;9.13;;
6348;SDS011;3207;42.648;23.406;2022-07-23T04:20:09;12.93;;;9.88;;
6348;SDS011;3207;42.648;23.406;2022-07-23T04:22:36;10.07;;;9.18;;
6348;SDS011;3207;42.648;23.406;2022-07-23T04:25:03;11.25;;;10.35;;
6348;SDS011;3207;42.648;23.406;2022-07-23T04:27:30;11.13;;;10.02;;
6348;SDS011;3207;42.648;23.406;2022-07-23T04:29:58;11.57;;;10.48;;
6348;SDS011;3207;42.648;23.406;2022-07-23T04:32:26;12.93;;;9.70;;
6348;SDS011;3207;42.648;23.406;2022-07-23T04:34:53;11.20;;;10.20;;
6348;SDS011;3207;42.648;23.406;2022-07-23T04:37:19;11.55;;;9.73;;
6348;SDS011;3207;42.648;23.406;2022-07-23T04:39:46;10.55;;;9.35;;
6348;SDS011;3207;42.648;23.406;2022-07-23T04:42:12;11.25;;;10.27;;
6348;SDS011;3207;42.648;23.406;2022-07-23T04:44:39;12.15;;;10.30;;
6348;SDS011;3207;42.648;23.406;2022-07-23T04:47:05;10.93;;;9.82;;
6348;SDS011;3207;42.648;23.406;2022-07-23T04:49:33;12.13;;;10.95;;
6348;SDS011;3207;42.648;23.406;2022-07-23T04:52:00;11.93;;;9.60;;
6348;SDS011;3207;42.648;23.406;2022-07-23T04:54:27;12.00;;;10.80;;
6348;SDS011;3207;42.648;23.406;2022-07-23T04:56:53;14.25;;;11.27;;
6348;SDS011;3207;42.648;23.406;2022-07-23T04:59:20;11.38;;;10.10;;
6348;SDS011;3207;42.648;23.406;2022-07-23T05:01:47;11.73;;;10.50;;
6348;SDS011;3207;42.648;23.406;2022-07-23T05:04:13;10.88;;;9.80;;
6348;SDS011;3207;42.648;23.406;2022-07-23T05:06:41;12.55;;;9.60;;
6348;SDS011;3207;42.648;23.406;2022-07-23T05:09:08;11.98;;;10.88;;
6348;SDS011;3207;42.648;23.406;2022-07-23T05:11:34;10.98;;;9.88;;
6348;SDS011;3207;42.648;23.406;2022-07-23T05:14:01;16.83;;;10.50;;
6348;SDS011;3207;42.648;23.406;2022-07-23T05:16:28;11.63;;;10.48;;
6348;SDS011;3207;42.648;23.406;2022-07-23T05:18:54;11.88;;;10.77;;
6348;SDS011;3207;42.648;23.406;2022-07-23T05:21:21;12.25;;;11.20;;
6348;SDS011;3207;42.648;23.406;2022-07-23T05:23:49;12.25;;;11.00;;
6348;SDS011;3207;42.648;23.406;2022-07-23T05:26:15;14.07;;;10.65;;
6348;SDS011;3207;42.648;23.406;2022-07-23T05:28:42;12.73;;;11.45;;
6348;SDS011;3207;42.648;23.406;2022-07-23T05:31:08;13.45;;;11.15;;
6348;SDS011;3207;42.648;23.406;2022-07-23T05:33:35;11.73;;;10.43;;
6348;SDS011;3207;42.648;23.406;2022-07-23T05:36:02;14.95;;;10.50;;
6348;SDS011;3207;42.648;23.406;2022-07-23T05:38:29;11.98;;;10.98;;
6348;SDS011;3207;42.648;23.406;2022-07-23T05:40:57;10.85;;;10.02;;
6348;SDS011;3207;42.648;23.406;2022-07-23T05:43:24;11.70;;;10.55;;
6348;SDS011;3207;42.648;23.406;2022-07-23T05:45:51;11.73;;;10.82;;
6348;SDS011;3207;42.648;23.406;2022-07-23T05:48:18;11.75;;;10.65;;
6348;SDS011;3207;42.648;23.406;2022-07-23T05:50:45;12.52;;;11.10;;
6348;SDS011;3207;42.648;23.406;2022-07-23T05:53:12;12.15;;;10.85;;
6348;SDS011;3207;42.648;23.406;2022-07-23T05:55:39;12.18;;;10.93;;
6348;SDS011;3207;42.648;23.406;2022-07-23T05:58:07;15.55;;;10.10;;
6348;SDS011;3207;42.648;23.406;2022-07-23T06:00:34;10.57;;;9.63;;
6348;SDS011;3207;42.648;23.406;2022-07-23T06:03:00;13.07;;;11.05;;
6348;SDS011;3207;42.648;23.406;2022-07-23T06:05:27;11.65;;;10.73;;
6348;SDS011;3207;42.648;23.406;2022-07-23T06:07:54;13.73;;;10.35;;
6348;SDS011;3207;42.648;23.406;2022-07-23T06:10:20;11.80;;;10.65;;
6348;SDS011;3207;42.648;23.406;2022-07-23T06:12:47;11.68;;;10.43;;
6348;SDS011;3207;42.648;23.406;2022-07-23T06:15:15;12.27;;;10.55;;
6348;SDS011;3207;42.648;23.406;2022-07-23T06:17:41;11.57;;;10.55;;
6348;SDS011;3207;42.648;23.406;2022-07-23T06:20:08;11.63;;;10.73;;
6348;SDS011;3207;42.648;23.406;2022-07-23T06:22:37;13.43;;;11.07;;
6348;SDS011;3207;42.648;23.406;2022-07-23T06:25:04;12.48;;;11.30;;
6348;SDS011;3207;42.648;23.406;2022-07-23T06:27:31;12.07;;;10.90;;
6348;SDS011;3207;42.648;23.406;2022-07-23T06:29:58;14.30;;;11.23;;
6348;SDS011;3207;42.648;23.406;2022-07-23T06:32:25;12.57;;;11.48;;
6348;SDS011;3207;42.648;23.406;2022-07-23T06:34:52;12.38;;;11.18;;
6348;SDS011;3207;42.648;23.406;2022-07-23T06:37:19;12.90;;;11.32;;
6348;SDS011;3207;42.648;23.406;2022-07-23T06:39:45;11.93;;;11.10;;
6348;SDS011;3207;42.648;23.406;2022-07-23T06:42:12;12.25;;;10.85;;
6348;SDS011;3207;42.648;23.406;2022-07-23T06:44:39;13.13;;;11.93;;
6348;SDS011;3207;42.648;23.406;2022-07-23T06:47:06;11.40;;;10.27;;
6348;SDS011;3207;42.648;23.406;2022-07-23T06:49:34;17.48;;;10.18;;
6348;SDS011;3207;42.648;23.406;2022-07-23T06:52:01;14.48;;;10.25;;
6348;SDS011;3207;42.648;23.406;2022-07-23T06:54:27;12.05;;;11.00;;
6348;SDS011;3207;42.648;23.406;2022-07-23T06:56:54;13.77;;;10.65;;
6348;SDS011;3207;42.648;23.406;2022-07-23T06:59:21;13.70;;;10.38;;
6348;SDS011;3207;42.648;23.406;2022-07-23T07:01:47;14.07;;;10.50;;
6348;SDS011;3207;42.648;23.406;2022-07-23T07:04:14;11.38;;;10.20;;
6348;SDS011;3207;42.648;23.406;2022-07-23T07:06:42;14.13;;;10.55;;
6348;SDS011;3207;42.648;23.406;2022-07-23T07:09:09;12.38;;;11.20;;
6348;SDS011;3207;42.648;23.406;2022-07-23T07:11:35;11.18;;;10.07;;
6348;SDS011;3207;42.648;23.406;2022-07-23T07:14:02;12.73;;;11.27;;
6348;SDS011;3207;42.648;23.406;2022-07-23T07:16:29;16.02;;;10.75;;
6348;SDS011;3207;42.648;23.406;2022-07-23T07:18:56;13.07;;;11.32;;
6348;SDS011;3207;42.648;23.406;2022-07-23T07:21:22;17.45;;;11.07;;
6348;SDS011;3207;42.648;23.406;2022-07-23T07:23:50;14.98;;;11.35;;
6348;SDS011;3207;42.648;23.406;2022-07-23T07:26:17;7.30;;;6.75;;
6348;SDS011;3207;42.648;23.406;2022-07-23T07:28:43;5.80;;;5.30;;
6348;SDS011;3207;42.648;23.406;2022-07-23T07:31:10;7.93;;;5.88;;
6348;SDS011;3207;42.648;23.406;2022-07-23T07:33:37;11.02;;;9.25;;
6348;SDS011;3207;42.648;23.406;2022-07-23T07:36:03;19.13;;;8.80;;
6348;SDS011;3207;42.648;23.406;2022-07-23T07:38:30;11.95;;;9.00;;
6348;SDS011;3207;42.648;23.406;2022-07-23T07:40:59;10.60;;;9.80;;
6348;SDS011;3207;42.648;23.406;2022-07-23T07:43:25;14.20;;;12.57;;
6348;SDS011;3207;42.648;23.406;2022-07-23T07:45:52;13.32;;;11.43;;
6348;SDS011;3207;42.648;23.406;2022-07-23T07:48:18;12.68;;;11.48;;
6348;SDS011;3207;42.648;23.406;2022-07-23T07:50:45;15.00;;;11.93;;
6348;SDS011;3207;42.648;23.406;2022-07-23T07:53:11;18.35;;;12.50;;
6348;SDS011;3207;42.648;23.406;2022-07-23T07:55:38;13.68;;;12.27;;
6348;SDS011;3207;42.648;23.406;2022-07-23T07:58:06;14.40;;;12.93;;
6348;SDS011;3207;42.648;23.406;2022-07-23T08:00:33;13.02;;;12.00;;
6348;SDS011;3207;42.648;23.406;2022-07-23T08:02:59;14.27;;;12.32;;
6348;SDS011;3207;42.648;23.406;2022-07-23T08:05:26;13.73;;;12.32;;
6348;SDS011;3207;42.648;23.406;2022-07-23T08:07:54;14.50;;;12.70;;
6348;SDS011;3207;42.648;23.406;2022-07-23T08:10:21;14.30;;;13.00;;
6348;SDS011;3207;42.648;23.406;2022-07-23T08:12:49;13.65;;;12.55;;
6348;SDS011;3207;42.648;23.406;2022-07-23T08:15:19;13.82;;;12.38;;
6348;SDS011;3207;42.648;23.406;2022-07-23T08:17:49;13.80;;;12.60;;
6348;SDS011;3207;42.648;23.406;2022-07-23T08:20:16;14.80;;;13.25;;
6348;SDS011;3207;42.648;23.406;2022-07-23T08:22:45;16.48;;;13.95;;
6348;SDS011;3207;42.648;23.406;2022-07-23T08:25:13;18.67;;;13.65;;
6348;SDS011;3207;42.648;23.406;2022-07-23T08:27:40;17.80;;;14.05;;
6348;SDS011;3207;42.648;23.406;2022-07-23T08:30:07;16.63;;;13.23;;
6348;SDS011;3207;42.648;23.406;2022-07-23T08:32:48;14.68;;;13.38;;
6348;SDS011;3207;42.648;23.406;2022-07-23T08:35:16;14.95;;;13.75;;
6348;SDS011;3207;42.648;23.406;2022-07-23T08:37:43;16.08;;;14.40;;
6348;SDS011;3207;42.648;23.406;2022-07-23T08:40:10;16.05;;;14.55;;
6348;SDS011;3207;42.648;23.406;2022-07-23T08:42:37;15.70;;;14.20;;
6348;SDS011;3207;42.648;23.406;2022-07-23T08:45:04;17.23;;;15.30;;
6348;SDS011;3207;42.648;23.406;2022-07-23T08:47:33;17.90;;;15.73;;
6348;SDS011;3207;42.648;23.406;2022-07-23T08:50:03;20.52;;;16.67;;
6348;SDS011;3207;42.648;23.406;2022-07-23T08:52:30;23.00;;;17.52;;
6348;SDS011;3207;42.648;23.406;2022-07-23T08:54:58;20.55;;;18.10;;
6348;SDS011;3207;42.648;23.406;2022-07-23T08:57:25;20.67;;;18.15;;
6348;SDS011;3207;42.648;23.406;2022-07-23T08:59:51;22.67;;;18.27;;
6348;SDS011;3207;42.648;23.406;2022-07-23T09:02:18;22.75;;;20.75;;
6348;SDS011;3207;42.648;23.406;2022-07-23T09:04:45;21.25;;;19.55;;
6348;SDS011;3207;42.648;23.406;2022-07-23T09:07:13;19.27;;;17.67;;
6348;SDS011;3207;42.648;23.406;2022-07-23T09:09:39;19.67;;;17.88;;
6348;SDS011;3207;42.648;23.406;2022-07-23T09:12:07;22.10;;;20.10;;
6348;SDS011;3207;42.648;23.406;2022-07-23T09:14:37;19.83;;;18.02;;
6348;SDS011;3207;42.648;23.406;2022-07-23T09:17:09;19.05;;;17.45;;
6348;SDS011;3207;42.648;23.406;2022-07-23T09:19:36;19.73;;;18.05;;
6348;SDS011;3207;42.648;23.406;2022-07-23T09:22:17;18.30;;;16.92;;
6348;SDS011;3207;42.648;23.406;2022-07-23T09:27:50;19.10;;;17.50;;
6348;SDS011;3207;42.648;23.406;2022-07-23T09:30:20;19.52;;;17.83;;
6348;SDS011;3207;42.648;23.406;2022-07-23T09:35:43;18.77;;;17.20;;
6348;SDS011;3207;42.648;23.406;2022-07-23T09:38:16;21.13;;;19.20;;
6348;SDS011;3207;42.648;23.406;2022-07-23T09:40:43;20.60;;;18.58;;
6348;SDS011;3207;42.648;23.406;2022-07-23T09:43:11;17.88;;;16.02;;
6348;SDS011;3207;42.648;23.406;2022-07-23T09:45:38;17.20;;;15.50;;
6348;SDS011;3207;42.648;23.406;2022-07-23T09:48:11;18.20;;;16.05;;
6348;SDS011;3207;42.648;23.406;2022-07-23T09:50:39;18.02;;;16.42;;
6348;SDS011;3207;42.648;23.406;2022-07-23T09:53:06;21.05;;;16.85;;
6348;SDS011;3207;42.648;23.406;2022-07-23T09:55:34;21.55;;;16.90;;
6348;SDS011;3207;42.648;23.406;2022-07-23T09:58:03;18.23;;;16.52;;
6348;SDS011;3207;42.648;23.406;2022-07-23T10:00:33;20.33;;;17.02;;
6348;SDS011;3207;42.648;23.406;2022-07-23T10:03:07;19.13;;;17.33;;
6348;SDS011;3207;42.648;23.406;2022-07-23T10:05:35;16.33;;;14.82;;
6348;SDS011;3207;42.648;23.406;2022-07-23T10:08:03;17.90;;;16.00;;
6348;SDS011;3207;42.648;23.406;2022-07-23T10:10:34;19.00;;;17.20;;
6348;SDS011;3207;42.648;23.406;2022-07-23T10:13:01;17.65;;;16.17;;
6348;SDS011;3207;42.648;23.406;2022-07-23T10:15:45;19.05;;;17.35;;
6348;SDS011;3207;42.648;23.406;2022-07-23T10:18:12;18.02;;;16.25;;
6348;SDS011;3207;42.648;23.406;2022-07-23T10:20:39;18.90;;;16.95;;
6348;SDS011;3207;42.648;23.406;2022-07-23T10:23:20;16.95;;;15.45;;
6348;SDS011;3207;42.648;23.406;2022-07-23T10:25:57;18.13;;;16.52;;
6348;SDS011;3207;42.648;23.406;2022-07-23T10:28:33;17.52;;;15.85;;
6348;SDS011;3207;42.648;23.406;2022-07-23T10:31:15;15.07;;;13.77;;
6348;SDS011;3207;42.648;23.406;2022-07-23T10:33:54;16.35;;;15.15;;
6348;SDS011;3207;42.648;23.406;2022-07-23T10:36:27;17.42;;;15.57;;
6348;SDS011;3207;42.648;23.406;2022-07-23T10:38:58;14.55;;;13.20;;
6348;SDS011;3207;42.648;23.406;2022-07-23T10:41:33;15.25;;;13.88;;
6348;SDS011;3207;42.648;23.406;2022-07-23T10:44:11;17.00;;;15.45;;
6348;SDS011;3207;42.648;23.406;2022-07-23T10:46:55;15.43;;;14.32;;
6348;SDS011;3207;42.648;23.406;2022-07-23T10:49:43;15.48;;;14.18;;
6348;SDS011;3207;42.648;23.406;2022-07-23T10:52:23;15.38;;;13.95;;
6348;SDS011;3207;42.648;23.406;2022-07-23T10:54:52;16.00;;;14.18;;
6348;SDS011;3207;42.648;23.406;2022-07-23T10:57:25;14.95;;;12.82;;
6348;SDS011;3207;42.648;23.406;2022-07-23T11:02:40;14.02;;;12.57;;
6348;SDS011;3207;42.648;23.406;2022-07-23T11:05:08;10.50;;;9.68;;
6348;SDS011;3207;42.648;23.406;2022-07-23T11:07:36;11.32;;;10.25;;
6348;SDS011;3207;42.648;23.406;2022-07-23T11:10:31;11.30;;;10.20;;
6348;SDS011;3207;42.648;23.406;2022-07-23T11:13:05;11.27;;;8.98;;
6348;SDS011;3207;42.648;23.406;2022-07-23T11:16:03;11.63;;;10.70;;
6348;SDS011;3207;42.648;23.406;2022-07-23T11:24:09;10.48;;;9.57;;
6348;SDS011;3207;42.648;23.406;2022-07-23T11:26:43;8.88;;;8.02;;
6348;SDS011;3207;42.648;23.406;2022-07-23T11:32:22;7.95;;;7.43;;
6348;SDS011;3207;42.648;23.406;2022-07-23T11:35:05;9.02;;;8.13;;
6348;SDS011;3207;42.648;23.406;2022-07-23T11:37:45;8.25;;;7.60;;
6348;SDS011;3207;42.648;23.406;2022-07-23T11:40:13;7.93;;;7.35;;
6348;SDS011;3207;42.648;23.406;2022-07-23T11:42:50;9.13;;;8.35;;
6348;SDS011;3207;42.648;23.406;2022-07-23T11:45:20;8.85;;;8.18;;
6348;SDS011;3207;42.648;23.406;2022-07-23T11:47:47;11.35;;;10.55;;
6348;SDS011;3207;42.648;23.406;2022-07-23T11:50:14;9.07;;;8.00;;
6348;SDS011;3207;42.648;23.406;2022-07-23T11:52:40;7.72;;;7.13;;
6348;SDS011;3207;42.648;23.406;2022-07-23T11:55:08;8.20;;;7.40;;
6348;SDS011;3207;42.648;23.406;2022-07-23T11:57:37;11.20;;;8.05;;
6348;SDS011;3207;42.648;23.406;2022-07-23T12:00:06;8.30;;;7.70;;
6348;SDS011;3207;42.648;23.406;2022-07-23T12:02:37;8.70;;;8.00;;
6348;SDS011;3207;42.648;23.406;2022-07-23T12:05:04;7.68;;;7.07;;
6348;SDS011;3207;42.648;23.406;2022-07-23T12:07:32;8.48;;;7.78;;
6348;SDS011;3207;42.648;23.406;2022-07-23T12:10:02;8.15;;;7.45;;
6348;SDS011;3207;42.648;23.406;2022-07-23T12:12:35;7.88;;;7.15;;
6348;SDS011;3207;42.648;23.406;2022-07-23T12:15:03;7.70;;;7.13;;
6348;SDS011;3207;42.648;23.406;2022-07-23T12:17:32;7.75;;;7.15;;
6348;SDS011;3207;42.648;23.406;2022-07-23T12:20:02;9.43;;;7.68;;
6348;SDS011;3207;42.648;23.406;2022-07-23T12:22:34;8.57;;;7.78;;
6348;SDS011;3207;42.648;23.406;2022-07-23T12:25:03;11.35;;;8.52;;
6348;SDS011;3207;42.648;23.406;2022-07-23T12:27:32;8.05;;;7.15;;
6348;SDS011;3207;42.648;23.406;2022-07-23T12:30:14;8.95;;;8.20;;
6348;SDS011;3207;42.648;23.406;2022-07-23T12:32:45;8.23;;;7.43;;
6348;SDS011;3207;42.648;23.406;2022-07-23T12:35:13;8.60;;;7.90;;
6348;SDS011;3207;42.648;23.406;2022-07-23T12:37:41;7.65;;;7.13;;
6348;SDS011;3207;42.648;23.406;2022-07-23T12:40:22;7.38;;;6.75;;
6348;SDS011;3207;42.648;23.406;2022-07-23T12:42:54;10.10;;;8.32;;
6348;SDS011;3207;42.648;23.406;2022-07-23T12:45:22;7.55;;;6.95;;
6348;SDS011;3207;42.648;23.406;2022-07-23T12:47:59;8.32;;;6.82;;
6348;SDS011;3207;42.648;23.406;2022-07-23T12:50:37;8.60;;;7.97;;
6348;SDS011;3207;42.648;23.406;2022-07-23T12:53:06;8.63;;;7.72;;
6348;SDS011;3207;42.648;23.406;2022-07-23T12:55:35;8.93;;;7.78;;
6348;SDS011;3207;42.648;23.406;2022-07-23T12:58:03;8.27;;;7.65;;
6348;SDS011;3207;42.648;23.406;2022-07-23T13:00:31;8.60;;;7.93;;
6348;SDS011;3207;42.648;23.406;2022-07-23T13:02:58;8.15;;;7.55;;
6348;SDS011;3207;42.648;23.406;2022-07-23T13:05:25;8.55;;;7.85;;
6348;SDS011;3207;42.648;23.406;2022-07-23T13:07:53;8.38;;;7.68;;
6348;SDS011;3207;42.648;23.406;2022-07-23T13:10:19;8.65;;;8.05;;
6348;SDS011;3207;42.648;23.406;2022-07-23T13:12:46;7.85;;;7.35;;
6348;SDS011;3207;42.648;23.406;2022-07-23T13:15:12;8.43;;;7.65;;
6348;SDS011;3207;42.648;23.406;2022-07-23T13:17:39;8.35;;;7.65;;
6348;SDS011;3207;42.648;23.406;2022-07-23T13:20:09;8.35;;;7.60;;
6348;SDS011;3207;42.648;23.406;2022-07-23T13:22:37;8.05;;;7.35;;
6348;SDS011;3207;42.648;23.406;2022-07-23T13:25:05;8.45;;;7.80;;
6348;SDS011;3207;42.648;23.406;2022-07-23T13:27:33;9.88;;;7.70;;
6348;SDS011;3207;42.648;23.406;2022-07-23T13:29:59;8.10;;;7.32;;
6348;SDS011;3207;42.648;23.406;2022-07-23T13:32:26;8.10;;;7.38;;
6348;SDS011;3207;42.648;23.406;2022-07-23T13:34:52;8.43;;;7.60;;
6348;SDS011;3207;42.648;23.406;2022-07-23T13:37:19;8.65;;;7.80;;
6348;SDS011;3207;42.648;23.406;2022-07-23T13:39:46;7.70;;;7.20;;
6348;SDS011;3207;42.648;23.406;2022-07-23T13:42:14;8.98;;;8.18;;
6348;SDS011;3207;42.648;23.406;2022-07-23T13:44:40;8.55;;;7.85;;
6348;SDS011;3207;42.648;23.406;2022-07-23T13:47:07;7.45;;;6.85;;
6348;SDS011;3207;42.648;23.406;2022-07-23T13:49:33;8.82;;;8.10;;
6348;SDS011;3207;42.648;23.406;2022-07-23T13:52:00;8.93;;;8.05;;
6348;SDS011;3207;42.648;23.406;2022-07-23T13:54:28;8.90;;;8.20;;
6348;SDS011;3207;42.648;23.406;2022-07-23T13:56:54;9.00;;;8.40;;
6348;SDS011;3207;42.648;23.406;2022-07-23T13:59:23;8.48;;;7.60;;
6348;SDS011;3207;42.648;23.406;2022-07-23T14:01:50;8.73;;;8.05;;
6348;SDS011;3207;42.648;23.406;2022-07-23T14:04:16;8.70;;;8.10;;
6348;SDS011;3207;42.648;23.406;2022-07-23T14:06:43;9.05;;;8.18;;
6348;SDS011;3207;42.648;23.406;2022-07-23T14:09:09;11.15;;;8.02;;
6348;SDS011;3207;42.648;23.406;2022-07-23T14:11:36;9.18;;;8.57;;
6348;SDS011;3207;42.648;23.406;2022-07-23T14:14:03;9.35;;;8.63;;
6348;SDS011;3207;42.648;23.406;2022-07-23T14:16:31;8.35;;;7.63;;
6348;SDS011;3207;42.648;23.406;2022-07-23T14:18:58;8.60;;;7.80;;
6348;SDS011;3207;42.648;23.406;2022-07-23T14:21:25;8.75;;;8.05;;
6348;SDS011;3207;42.648;23.406;2022-07-23T14:23:51;10.13;;;9.27;;
6348;SDS011;3207;42.648;23.406;2022-07-23T14:26:18;9.15;;;8.35;;
6348;SDS011;3207;42.648;23.406;2022-07-23T14:28:44;9.43;;;8.57;;
6348;SDS011;3207;42.648;23.406;2022-07-23T14:31:11;8.38;;;7.57;;
6348;SDS011;3207;42.648;23.406;2022-07-23T14:33:39;9.43;;;8.73;;
6348;SDS011;3207;42.648;23.406;2022-07-23T14:36:06;9.32;;;8.43;;
6348;SDS011;3207;42.648;23.406;2022-07-23T14:38:32;9.20;;;8.50;;
6348;SDS011;3207;42.648;23.406;2022-07-23T14:40:59;9.32;;;8.63;;
6348;SDS011;3207;42.648;23.406;2022-07-23T14:43:26;8.77;;;8.10;;
6348;SDS011;3207;42.648;23.406;2022-07-23T14:45:52;10.00;;;8.88;;
6348;SDS011;3207;42.648;23.406;2022-07-23T14:48:19;9.23;;;8.43;;
6348;SDS011;3207;42.648;23.406;2022-07-23T14:50:47;9.70;;;8.90;;
6348;SDS011;3207;42.648;23.406;2022-07-23T14:53:13;9.05;;;8.27;;
6348;SDS011;3207;42.648;23.406;2022-07-23T14:55:40;9.32;;;8.73;;
6348;SDS011;3207;42.648;23.406;2022-07-23T14:58:07;9.18;;;8.38;;
6348;SDS011;3207;42.648;23.406;2022-07-23T15:00:33;9.68;;;8.75;;
6348;SDS011;3207;42.648;23.406;2022-07-23T15:03:00;8.57;;;7.60;;
6348;SDS011;3207;42.648;23.406;2022-07-23T15:05:26;8.30;;;7.60;;
6348;SDS011;3207;42.648;23.406;2022-07-23T15:07:55;9.20;;;8.45;;